sensor_id;sensor_type;location;lat;lon;timestamp;P1;durP1;ratioP1;P2;durP2;ratioP2
20802;SDS011;10562;-33.856;151.182;2024-01-30T00:01:16;20.20;;;8.05;;
20802;SDS011;10562;-33.856;151.182;2024-01-30T00:03:47;15.88;;;8.30;;
20802;SDS011;10562;-33.856;151.182;2024-01-30T00:06:19;20.63;;;9.23;;
20802;SDS011;10562;-33.856;151.182;2024-01-30T00:08:50;19.77;;;8.68;;
20802;SDS011;10562;-33.856;151.182;2024-01-30T00:11:23;20.45;;;8.75;;
20802;SDS011;10562;-33.856;151.182;2024-01-30T00:13:56;20.75;;;9.70;;
20802;SDS011;10562;-33.856;151.182;2024-01-30T00:16:27;15.82;;;8.55;;
20802;SDS011;10562;-33.856;151.182;2024-01-30T00:18:58;13.45;;;7.35;;
20802;SDS011;10562;-33.856;151.182;2024-01-30T00:21:29;15.45;;;5.57;;
20802;SDS011;10562;-33.856;151.182;2024-01-30T00:24:00;15.18;;;4.85;;
20802;SDS011;10562;-33.856;151.182;2024-01-30T00:26:33;13.60;;;4.57;;
20802;SDS011;10562;-33.856;151.182;2024-01-30T00:29:04;15.50;;;4.40;;
20802;SDS011;10562;-33.856;151.182;2024-01-30T00:31:34;16.95;;;4.55;;
20802;SDS011;10562;-33.856;151.182;2024-01-30T00:34:08;16.10;;;4.38;;
20802;SDS011;10562;-33.856;151.182;2024-01-30T00:36:39;15.60;;;4.30;;
20802;SDS011;10562;-33.856;151.182;2024-01-30T00:39:09;14.15;;;4.30;;
20802;SDS011;10562;-33.856;151.182;2024-01-30T00:41:43;12.90;;;4.40;;
20802;SDS011;10562;-33.856;151.182;2024-01-30T00:44:14;17.48;;;4.68;;
20802;SDS011;10562;-33.856;151.182;2024-01-30T00:46:45;13.60;;;4.03;;
20802;SDS011;10562;-33.856;151.182;2024-01-30T00:49:16;12.32;;;4.22;;
20802;SDS011;10562;-33.856;151.182;2024-01-30T00:51:46;11.52;;;4.10;;
20802;SDS011;10562;-33.856;151.182;2024-01-30T00:54:17;15.15;;;4.43;;
20802;SDS011;10562;-33.856;151.182;2024-01-30T00:56:56;16.42;;;3.90;;
20802;SDS011;10562;-33.856;151.182;2024-01-30T00:59:27;11.60;;;3.35;;
20802;SDS011;10562;-33.856;151.182;2024-01-30T01:01:57;14.45;;;3.97;;
20802;SDS011;10562;-33.856;151.182;2024-01-30T01:04:28;11.63;;;3.88;;
20802;SDS011;10562;-33.856;151.182;2024-01-30T01:06:59;12.20;;;3.58;;
20802;SDS011;10562;-33.856;151.182;2024-01-30T01:09:30;10.40;;;3.38;;
20802;SDS011;10562;-33.856;151.182;2024-01-30T01:12:02;10.43;;;3.60;;
20802;SDS011;10562;-33.856;151.182;2024-01-30T01:14:33;9.88;;;3.75;;
20802;SDS011;10562;-33.856;151.182;2024-01-30T01:17:04;15.32;;;3.67;;
20802;SDS011;10562;-33.856;151.182;2024-01-30T01:19:35;12.45;;;3.83;;
20802;SDS011;10562;-33.856;151.182;2024-01-30T01:22:06;11.55;;;3.60;;
20802;SDS011;10562;-33.856;151.182;2024-01-30T01:24:36;15.02;;;3.90;;
20802;SDS011;10562;-33.856;151.182;2024-01-30T01:27:09;11.70;;;3.65;;
20802;SDS011;10562;-33.856;151.182;2024-01-30T01:29:40;9.98;;;3.45;;
20802;SDS011;10562;-33.856;151.182;2024-01-30T01:32:11;11.30;;;3.72;;
20802;SDS011;10562;-33.856;151.182;2024-01-30T01:34:42;13.13;;;3.97;;
20802;SDS011;10562;-33.856;151.182;2024-01-30T01:37:13;13.07;;;3.53;;
20802;SDS011;10562;-33.856;151.182;2024-01-30T01:39:44;9.20;;;3.50;;
20802;SDS011;10562;-33.856;151.182;2024-01-30T01:42:16;12.38;;;3.70;;
20802;SDS011;10562;-33.856;151.182;2024-01-30T01:44:48;16.20;;;4.00;;
20802;SDS011;10562;-33.856;151.182;2024-01-30T01:47:19;13.32;;;4.65;;
20802;SDS011;10562;-33.856;151.182;2024-01-30T01:49:50;12.48;;;4.20;;
20802;SDS011;10562;-33.856;151.182;2024-01-30T01:52:21;20.95;;;5.75;;
20802;SDS011;10562;-33.856;151.182;2024-01-30T01:54:52;13.52;;;4.18;;
20802;SDS011;10562;-33.856;151.182;2024-01-30T01:57:24;15.98;;;4.03;;
20802;SDS011;10562;-33.856;151.182;2024-01-30T01:59:55;14.15;;;4.07;;
20802;SDS011;10562;-33.856;151.182;2024-01-30T02:02:27;16.45;;;3.80;;
20802;SDS011;10562;-33.856;151.182;2024-01-30T02:05:01;12.18;;;3.55;;
20802;SDS011;10562;-33.856;151.182;2024-01-30T02:07:32;13.95;;;4.53;;
20802;SDS011;10562;-33.856;151.182;2024-01-30T02:10:03;16.92;;;4.35;;
20802;SDS011;10562;-33.856;151.182;2024-01-30T02:12:38;18.05;;;4.65;;
20802;SDS011;10562;-33.856;151.182;2024-01-30T02:15:14;14.63;;;4.07;;
20802;SDS011;10562;-33.856;151.182;2024-01-30T02:17:44;13.68;;;4.15;;
20802;SDS011;10562;-33.856;151.182;2024-01-30T02:20:15;11.73;;;3.75;;
20802;SDS011;10562;-33.856;151.182;2024-01-30T02:22:48;17.73;;;4.13;;
20802;SDS011;10562;-33.856;151.182;2024-01-30T02:25:20;14.25;;;4.07;;
20802;SDS011;10562;-33.856;151.182;2024-01-30T02:27:59;9.82;;;3.53;;
20802;SDS011;10562;-33.856;151.182;2024-01-30T02:30:30;18.05;;;3.75;;
20802;SDS011;10562;-33.856;151.182;2024-01-30T02:33:01;14.60;;;4.03;;
20802;SDS011;10562;-33.856;151.182;2024-01-30T02:35:32;12.43;;;3.90;;
20802;SDS011;10562;-33.856;151.182;2024-01-30T02:38:05;13.18;;;3.40;;
20802;SDS011;10562;-33.856;151.182;2024-01-30T02:40:36;17.98;;;3.90;;
20802;SDS011;10562;-33.856;151.182;2024-01-30T02:43:07;13.52;;;3.65;;
20802;SDS011;10562;-33.856;151.182;2024-01-30T02:45:37;15.90;;;3.97;;
20802;SDS011;10562;-33.856;151.182;2024-01-30T02:48:08;17.50;;;3.75;;
20802;SDS011;10562;-33.856;151.182;2024-01-30T02:50:39;13.32;;;3.53;;
20802;SDS011;10562;-33.856;151.182;2024-01-30T02:53:11;12.70;;;3.58;;
20802;SDS011;10562;-33.856;151.182;2024-01-30T02:55:42;13.55;;;3.22;;
20802;SDS011;10562;-33.856;151.182;2024-01-30T02:58:13;12.32;;;3.03;;
20802;SDS011;10562;-33.856;151.182;2024-01-30T03:00:44;15.48;;;3.35;;
20802;SDS011;10562;-33.856;151.182;2024-01-30T03:03:14;15.55;;;3.20;;
20802;SDS011;10562;-33.856;151.182;2024-01-30T03:05:45;13.02;;;3.60;;
20802;SDS011;10562;-33.856;151.182;2024-01-30T03:08:18;17.40;;;3.30;;
20802;SDS011;10562;-33.856;151.182;2024-01-30T03:10:49;11.93;;;3.10;;
20802;SDS011;10562;-33.856;151.182;2024-01-30T03:13:20;14.25;;;3.35;;
20802;SDS011;10562;-33.856;151.182;2024-01-30T03:15:51;11.93;;;3.13;;
20802;SDS011;10562;-33.856;151.182;2024-01-30T03:18:22;12.95;;;2.83;;
20802;SDS011;10562;-33.856;151.182;2024-01-30T03:20:53;11.30;;;2.85;;
20802;SDS011;10562;-33.856;151.182;2024-01-30T03:23:25;12.25;;;2.88;;
20802;SDS011;10562;-33.856;151.182;2024-01-30T03:25:57;11.70;;;2.88;;
20802;SDS011;10562;-33.856;151.182;2024-01-30T03:28:28;17.10;;;2.85;;
20802;SDS011;10562;-33.856;151.182;2024-01-30T03:30:58;15.02;;;2.60;;
20802;SDS011;10562;-33.856;151.182;2024-01-30T03:33:30;12.48;;;2.55;;
20802;SDS011;10562;-33.856;151.182;2024-01-30T03:36:03;15.10;;;3.05;;
20802;SDS011;10562;-33.856;151.182;2024-01-30T03:38:37;18.83;;;3.13;;
20802;SDS011;10562;-33.856;151.182;2024-01-30T03:41:08;15.38;;;3.00;;
20802;SDS011;10562;-33.856;151.182;2024-01-30T03:43:39;15.52;;;2.75;;
20802;SDS011;10562;-33.856;151.182;2024-01-30T03:46:11;11.40;;;2.88;;
20802;SDS011;10562;-33.856;151.182;2024-01-30T03:48:42;15.00;;;2.85;;
20802;SDS011;10562;-33.856;151.182;2024-01-30T03:51:14;13.90;;;2.88;;
20802;SDS011;10562;-33.856;151.182;2024-01-30T03:53:47;12.13;;;3.13;;
20802;SDS011;10562;-33.856;151.182;2024-01-30T03:56:18;10.43;;;2.78;;
20802;SDS011;10562;-33.856;151.182;2024-01-30T03:58:50;12.80;;;2.95;;
20802;SDS011;10562;-33.856;151.182;2024-01-30T04:01:34;14.57;;;3.20;;
20802;SDS011;10562;-33.856;151.182;2024-01-30T04:04:05;15.30;;;3.00;;
20802;SDS011;10562;-33.856;151.182;2024-01-30T04:06:35;12.80;;;2.75;;
20802;SDS011;10562;-33.856;151.182;2024-01-30T04:09:08;12.95;;;2.80;;
20802;SDS011;10562;-33.856;151.182;2024-01-30T04:11:39;15.70;;;2.78;;
20802;SDS011;10562;-33.856;151.182;2024-01-30T04:14:10;15.48;;;2.50;;
20802;SDS011;10562;-33.856;151.182;2024-01-30T04:16:41;10.27;;;2.65;;
20802;SDS011;10562;-33.856;151.182;2024-01-30T04:19:12;12.93;;;3.03;;
20802;SDS011;10562;-33.856;151.182;2024-01-30T04:21:42;12.38;;;2.85;;
20802;SDS011;10562;-33.856;151.182;2024-01-30T04:24:15;14.52;;;3.10;;
20802;SDS011;10562;-33.856;151.182;2024-01-30T04:26:46;11.85;;;2.75;;
20802;SDS011;10562;-33.856;151.182;2024-01-30T04:29:16;13.40;;;3.25;;
20802;SDS011;10562;-33.856;151.182;2024-01-30T04:31:48;15.30;;;3.08;;
20802;SDS011;10562;-33.856;151.182;2024-01-30T04:34:19;13.77;;;2.50;;
20802;SDS011;10562;-33.856;151.182;2024-01-30T04:36:50;9.98;;;2.80;;
20802;SDS011;10562;-33.856;151.182;2024-01-30T04:39:23;14.13;;;3.00;;
20802;SDS011;10562;-33.856;151.182;2024-01-30T04:41:53;14.63;;;2.70;;
20802;SDS011;10562;-33.856;151.182;2024-01-30T04:44:24;11.50;;;2.83;;
20802;SDS011;10562;-33.856;151.182;2024-01-30T04:46:55;9.68;;;2.60;;
20802;SDS011;10562;-33.856;151.182;2024-01-30T04:49:27;17.80;;;3.33;;
20802;SDS011;10562;-33.856;151.182;2024-01-30T04:51:58;16.25;;;3.20;;
20802;SDS011;10562;-33.856;151.182;2024-01-30T04:54:31;13.82;;;2.80;;
20802;SDS011;10562;-33.856;151.182;2024-01-30T04:57:01;14.85;;;3.03;;
20802;SDS011;10562;-33.856;151.182;2024-01-30T04:59:35;14.52;;;2.97;;
20802;SDS011;10562;-33.856;151.182;2024-01-30T05:02:07;13.38;;;2.95;;
20802;SDS011;10562;-33.856;151.182;2024-01-30T05:04:37;14.63;;;2.97;;
20802;SDS011;10562;-33.856;151.182;2024-01-30T05:07:09;14.80;;;2.60;;
20802;SDS011;10562;-33.856;151.182;2024-01-30T05:09:42;14.27;;;2.72;;
20802;SDS011;10562;-33.856;151.182;2024-01-30T05:12:13;13.50;;;2.75;;
20802;SDS011;10562;-33.856;151.182;2024-01-30T05:14:44;18.90;;;3.33;;
20802;SDS011;10562;-33.856;151.182;2024-01-30T05:17:15;14.90;;;2.80;;
20802;SDS011;10562;-33.856;151.182;2024-01-30T05:19:45;19.48;;;3.10;;
20802;SDS011;10562;-33.856;151.182;2024-01-30T05:22:16;12.82;;;2.75;;
20802;SDS011;10562;-33.856;151.182;2024-01-30T05:24:49;15.15;;;3.05;;
20802;SDS011;10562;-33.856;151.182;2024-01-30T05:27:19;15.00;;;3.05;;
20802;SDS011;10562;-33.856;151.182;2024-01-30T05:29:50;13.23;;;2.90;;
20802;SDS011;10562;-33.856;151.182;2024-01-30T05:32:24;15.63;;;2.83;;
20802;SDS011;10562;-33.856;151.182;2024-01-30T05:34:54;15.68;;;2.80;;
20802;SDS011;10562;-33.856;151.182;2024-01-30T05:37:25;19.67;;;2.95;;
20802;SDS011;10562;-33.856;151.182;2024-01-30T05:39:58;13.25;;;3.00;;
20802;SDS011;10562;-33.856;151.182;2024-01-30T05:42:29;18.10;;;3.10;;
20802;SDS011;10562;-33.856;151.182;2024-01-30T05:45:00;19.30;;;3.28;;
20802;SDS011;10562;-33.856;151.182;2024-01-30T05:47:31;15.52;;;3.03;;
20802;SDS011;10562;-33.856;151.182;2024-01-30T05:50:02;13.45;;;3.03;;
20802;SDS011;10562;-33.856;151.182;2024-01-30T05:52:33;13.95;;;2.88;;
20802;SDS011;10562;-33.856;151.182;2024-01-30T05:55:06;14.70;;;3.08;;
20802;SDS011;10562;-33.856;151.182;2024-01-30T05:57:38;17.00;;;3.58;;
20802;SDS011;10562;-33.856;151.182;2024-01-30T06:00:09;15.30;;;2.75;;
20802;SDS011;10562;-33.856;151.182;2024-01-30T06:02:40;18.88;;;3.60;;
20802;SDS011;10562;-33.856;151.182;2024-01-30T06:05:29;13.45;;;2.80;;
20802;SDS011;10562;-33.856;151.182;2024-01-30T06:08:00;21.15;;;3.80;;
20802;SDS011;10562;-33.856;151.182;2024-01-30T06:10:35;13.05;;;3.22;;
20802;SDS011;10562;-33.856;151.182;2024-01-30T06:13:06;15.70;;;2.92;;
20802;SDS011;10562;-33.856;151.182;2024-01-30T06:15:37;16.48;;;3.22;;
20802;SDS011;10562;-33.856;151.182;2024-01-30T06:18:08;17.65;;;3.30;;
20802;SDS011;10562;-33.856;151.182;2024-01-30T06:20:39;21.63;;;3.95;;
20802;SDS011;10562;-33.856;151.182;2024-01-30T06:23:14;17.10;;;3.13;;
20802;SDS011;10562;-33.856;151.182;2024-01-30T06:25:47;16.63;;;3.40;;
20802;SDS011;10562;-33.856;151.182;2024-01-30T06:28:18;20.67;;;3.55;;
20802;SDS011;10562;-33.856;151.182;2024-01-30T06:30:49;17.98;;;3.40;;
20802;SDS011;10562;-33.856;151.182;2024-01-30T06:33:19;21.83;;;4.35;;
20802;SDS011;10562;-33.856;151.182;2024-01-30T06:35:51;19.02;;;3.40;;
20802;SDS011;10562;-33.856;151.182;2024-01-30T06:38:21;17.63;;;3.58;;
20802;SDS011;10562;-33.856;151.182;2024-01-30T06:40:54;18.30;;;3.58;;
20802;SDS011;10562;-33.856;151.182;2024-01-30T06:43:25;19.27;;;3.63;;
20802;SDS011;10562;-33.856;151.182;2024-01-30T06:45:56;19.75;;;3.50;;
20802;SDS011;10562;-33.856;151.182;2024-01-30T06:48:26;24.58;;;3.78;;
20802;SDS011;10562;-33.856;151.182;2024-01-30T06:50:57;20.92;;;4.13;;
20802;SDS011;10562;-33.856;151.182;2024-01-30T06:53:28;19.02;;;3.75;;
20802;SDS011;10562;-33.856;151.182;2024-01-30T06:56:00;21.42;;;4.32;;
20802;SDS011;10562;-33.856;151.182;2024-01-30T06:58:31;20.50;;;3.95;;
20802;SDS011;10562;-33.856;151.182;2024-01-30T07:01:02;21.98;;;4.05;;
20802;SDS011;10562;-33.856;151.182;2024-01-30T07:03:33;22.92;;;4.47;;
20802;SDS011;10562;-33.856;151.182;2024-01-30T07:06:03;31.27;;;4.85;;
20802;SDS011;10562;-33.856;151.182;2024-01-30T07:08:34;22.85;;;4.25;;
20802;SDS011;10562;-33.856;151.182;2024-01-30T07:11:07;21.95;;;3.70;;
20802;SDS011;10562;-33.856;151.182;2024-01-30T07:13:38;21.80;;;4.15;;
20802;SDS011;10562;-33.856;151.182;2024-01-30T07:16:09;18.40;;;3.83;;
20802;SDS011;10562;-33.856;151.182;2024-01-30T07:18:40;21.05;;;3.60;;
20802;SDS011;10562;-33.856;151.182;2024-01-30T07:21:11;18.25;;;4.20;;
20802;SDS011;10562;-33.856;151.182;2024-01-30T07:23:42;21.52;;;3.95;;
20802;SDS011;10562;-33.856;151.182;2024-01-30T07:26:14;28.85;;;4.70;;
20802;SDS011;10562;-33.856;151.182;2024-01-30T07:28:45;21.88;;;4.13;;
20802;SDS011;10562;-33.856;151.182;2024-01-30T07:31:17;24.55;;;4.50;;
20802;SDS011;10562;-33.856;151.182;2024-01-30T07:33:49;18.35;;;3.95;;
20802;SDS011;10562;-33.856;151.182;2024-01-30T07:36:20;22.90;;;4.22;;
20802;SDS011;10562;-33.856;151.182;2024-01-30T07:38:51;19.88;;;3.83;;
20802;SDS011;10562;-33.856;151.182;2024-01-30T07:41:24;17.05;;;3.55;;
20802;SDS011;10562;-33.856;151.182;2024-01-30T07:43:55;21.83;;;4.10;;
20802;SDS011;10562;-33.856;151.182;2024-01-30T07:46:26;26.60;;;4.30;;
20802;SDS011;10562;-33.856;151.182;2024-01-30T07:48:56;33.25;;;5.03;;
20802;SDS011;10562;-33.856;151.182;2024-01-30T07:51:28;18.17;;;4.78;;
20802;SDS011;10562;-33.856;151.182;2024-01-30T07:53:59;24.40;;;4.68;;
20802;SDS011;10562;-33.856;151.182;2024-01-30T07:56:31;18.67;;;4.93;;
20802;SDS011;10562;-33.856;151.182;2024-01-30T07:59:13;25.38;;;4.93;;
20802;SDS011;10562;-33.856;151.182;2024-01-30T08:02:05;20.45;;;4.20;;
20802;SDS011;10562;-33.856;151.182;2024-01-30T08:04:36;22.63;;;4.53;;
20802;SDS011;10562;-33.856;151.182;2024-01-30T08:07:07;19.80;;;4.22;;
20802;SDS011;10562;-33.856;151.182;2024-01-30T08:09:38;22.55;;;4.43;;
20802;SDS011;10562;-33.856;151.182;2024-01-30T08:12:10;22.23;;;4.72;;
20802;SDS011;10562;-33.856;151.182;2024-01-30T08:14:41;20.25;;;4.68;;
20802;SDS011;10562;-33.856;151.182;2024-01-30T08:17:12;24.77;;;5.40;;
20802;SDS011;10562;-33.856;151.182;2024-01-30T08:19:43;23.25;;;4.57;;
20802;SDS011;10562;-33.856;151.182;2024-01-30T08:22:13;19.20;;;4.75;;
20802;SDS011;10562;-33.856;151.182;2024-01-30T08:24:44;19.67;;;4.65;;
20802;SDS011;10562;-33.856;151.182;2024-01-30T08:27:17;21.40;;;4.40;;
20802;SDS011;10562;-33.856;151.182;2024-01-30T08:29:48;25.55;;;4.90;;
20802;SDS011;10562;-33.856;151.182;2024-01-30T08:32:19;16.80;;;4.47;;
20802;SDS011;10562;-33.856;151.182;2024-01-30T08:34:50;24.83;;;4.80;;
20802;SDS011;10562;-33.856;151.182;2024-01-30T08:37:21;33.35;;;11.20;;
20802;SDS011;10562;-33.856;151.182;2024-01-30T08:39:52;28.15;;;7.15;;
20802;SDS011;10562;-33.856;151.182;2024-01-30T08:42:24;22.10;;;4.93;;
20802;SDS011;10562;-33.856;151.182;2024-01-30T08:44:55;26.52;;;4.80;;
20802;SDS011;10562;-33.856;151.182;2024-01-30T08:47:26;39.70;;;7.05;;
20802;SDS011;10562;-33.856;151.182;2024-01-30T08:49:57;21.23;;;5.20;;
20802;SDS011;10562;-33.856;151.182;2024-01-30T08:52:28;30.02;;;7.15;;
20802;SDS011;10562;-33.856;151.182;2024-01-30T08:54:59;28.65;;;7.20;;
20802;SDS011;10562;-33.856;151.182;2024-01-30T08:57:32;21.40;;;6.78;;
20802;SDS011;10562;-33.856;151.182;2024-01-30T09:00:03;23.40;;;6.47;;
20802;SDS011;10562;-33.856;151.182;2024-01-30T09:02:36;28.25;;;8.35;;
20802;SDS011;10562;-33.856;151.182;2024-01-30T09:05:07;26.30;;;6.18;;
20802;SDS011;10562;-33.856;151.182;2024-01-30T09:07:38;28.42;;;7.65;;
20802;SDS011;10562;-33.856;151.182;2024-01-30T09:10:09;61.05;;;23.25;;
20802;SDS011;10562;-33.856;151.182;2024-01-30T09:12:42;45.22;;;17.73;;
20802;SDS011;10562;-33.856;151.182;2024-01-30T09:15:13;134.60;;;76.00;;
20802;SDS011;10562;-33.856;151.182;2024-01-30T09:17:45;80.18;;;40.70;;
20802;SDS011;10562;-33.856;151.182;2024-01-30T09:20:15;53.38;;;23.33;;
20802;SDS011;10562;-33.856;151.182;2024-01-30T09:22:48;37.70;;;13.48;;
20802;SDS011;10562;-33.856;151.182;2024-01-30T09:25:23;34.75;;;7.43;;
20802;SDS011;10562;-33.856;151.182;2024-01-30T09:27:56;26.63;;;6.85;;
20802;SDS011;10562;-33.856;151.182;2024-01-30T09:30:27;28.90;;;6.53;;
20802;SDS011;10562;-33.856;151.182;2024-01-30T09:32:59;28.00;;;6.20;;
20802;SDS011;10562;-33.856;151.182;2024-01-30T09:35:32;30.75;;;5.80;;
20802;SDS011;10562;-33.856;151.182;2024-01-30T09:38:03;19.45;;;5.68;;
20802;SDS011;10562;-33.856;151.182;2024-01-30T09:40:37;23.55;;;5.93;;
20802;SDS011;10562;-33.856;151.182;2024-01-30T09:43:10;26.17;;;6.32;;
20802;SDS011;10562;-33.856;151.182;2024-01-30T09:45:48;27.27;;;5.35;;
20802;SDS011;10562;-33.856;151.182;2024-01-30T09:48:35;25.33;;;5.82;;
20802;SDS011;10562;-33.856;151.182;2024-01-30T09:51:08;30.15;;;6.40;;
20802;SDS011;10562;-33.856;151.182;2024-01-30T09:53:40;29.30;;;5.47;;
20802;SDS011;10562;-33.856;151.182;2024-01-30T09:56:13;28.45;;;5.75;;
20802;SDS011;10562;-33.856;151.182;2024-01-30T09:58:47;30.55;;;5.85;;
20802;SDS011;10562;-33.856;151.182;2024-01-30T10:01:21;26.17;;;5.47;;
20802;SDS011;10562;-33.856;151.182;2024-01-30T10:03:55;27.40;;;5.38;;
20802;SDS011;10562;-33.856;151.182;2024-01-30T10:06:27;29.30;;;6.13;;
20802;SDS011;10562;-33.856;151.182;2024-01-30T10:08:59;28.58;;;5.28;;
20802;SDS011;10562;-33.856;151.182;2024-01-30T10:11:30;23.20;;;5.88;;
20802;SDS011;10562;-33.856;151.182;2024-01-30T10:14:06;30.60;;;5.60;;
20802;SDS011;10562;-33.856;151.182;2024-01-30T10:16:47;33.53;;;6.03;;
20802;SDS011;10562;-33.856;151.182;2024-01-30T10:19:24;29.27;;;5.57;;
20802;SDS011;10562;-33.856;151.182;2024-01-30T10:21:58;36.38;;;6.30;;
20802;SDS011;10562;-33.856;151.182;2024-01-30T10:24:39;26.90;;;5.82;;
20802;SDS011;10562;-33.856;151.182;2024-01-30T10:27:11;26.77;;;5.38;;
20802;SDS011;10562;-33.856;151.182;2024-01-30T10:29:48;27.38;;;5.97;;
20802;SDS011;10562;-33.856;151.182;2024-01-30T10:32:21;23.73;;;6.30;;
20802;SDS011;10562;-33.856;151.182;2024-01-30T10:34:56;25.70;;;6.35;;
20802;SDS011;10562;-33.856;151.182;2024-01-30T10:37:28;22.27;;;6.47;;
20802;SDS011;10562;-33.856;151.182;2024-01-30T10:40:02;24.98;;;5.72;;
20802;SDS011;10562;-33.856;151.182;2024-01-30T10:42:36;31.67;;;6.32;;
20802;SDS011;10562;-33.856;151.182;2024-01-30T10:45:12;28.50;;;6.32;;
20802;SDS011;10562;-33.856;151.182;2024-01-30T10:47:44;26.02;;;6.22;;
20802;SDS011;10562;-33.856;151.182;2024-01-30T10:50:18;29.92;;;6.10;;
20802;SDS011;10562;-33.856;151.182;2024-01-30T10:52:53;26.42;;;6.15;;
20802;SDS011;10562;-33.856;151.182;2024-01-30T10:55:26;21.63;;;5.97;;
20802;SDS011;10562;-33.856;151.182;2024-01-30T10:58:05;19.70;;;6.18;;
20802;SDS011;10562;-33.856;151.182;2024-01-30T11:00:39;30.00;;;7.32;;
20802;SDS011;10562;-33.856;151.182;2024-01-30T11:03:11;25.88;;;6.53;;
20802;SDS011;10562;-33.856;151.182;2024-01-30T11:05:43;23.25;;;6.55;;
20802;SDS011;10562;-33.856;151.182;2024-01-30T11:08:23;25.73;;;6.03;;
20802;SDS011;10562;-33.856;151.182;2024-01-30T11:10:55;27.05;;;6.78;;
20802;SDS011;10562;-33.856;151.182;2024-01-30T11:13:29;31.92;;;6.97;;
20802;SDS011;10562;-33.856;151.182;2024-01-30T11:16:03;30.10;;;6.85;;
20802;SDS011;10562;-33.856;151.182;2024-01-30T11:18:35;27.70;;;6.90;;
20802;SDS011;10562;-33.856;151.182;2024-01-30T11:21:06;31.80;;;8.20;;
20802;SDS011;10562;-33.856;151.182;2024-01-30T11:23:38;35.38;;;7.78;;
20802;SDS011;10562;-33.856;151.182;2024-01-30T11:26:10;32.83;;;7.00;;
20802;SDS011;10562;-33.856;151.182;2024-01-30T11:28:41;22.13;;;6.82;;
20802;SDS011;10562;-33.856;151.182;2024-01-30T11:31:15;22.27;;;6.50;;
20802;SDS011;10562;-33.856;151.182;2024-01-30T11:33:52;25.55;;;7.30;;
20802;SDS011;10562;-33.856;151.182;2024-01-30T11:36:24;28.55;;;9.18;;
20802;SDS011;10562;-33.856;151.182;2024-01-30T11:38:56;26.48;;;6.38;;
20802;SDS011;10562;-33.856;151.182;2024-01-30T11:41:27;23.20;;;6.82;;
20802;SDS011;10562;-33.856;151.182;2024-01-30T11:43:59;31.58;;;7.13;;
20802;SDS011;10562;-33.856;151.182;2024-01-30T11:46:34;23.65;;;7.07;;
20802;SDS011;10562;-33.856;151.182;2024-01-30T11:49:05;23.50;;;6.82;;
20802;SDS011;10562;-33.856;151.182;2024-01-30T11:51:36;22.45;;;7.55;;
20802;SDS011;10562;-33.856;151.182;2024-01-30T11:54:07;27.80;;;7.47;;
20802;SDS011;10562;-33.856;151.182;2024-01-30T11:56:38;25.88;;;7.32;;
20802;SDS011;10562;-33.856;151.182;2024-01-30T11:59:09;21.58;;;6.95;;
20802;SDS011;10562;-33.856;151.182;2024-01-30T12:01:42;22.58;;;6.50;;
20802;SDS011;10562;-33.856;151.182;2024-01-30T12:04:12;21.52;;;6.45;;
20802;SDS011;10562;-33.856;151.182;2024-01-30T12:06:44;23.10;;;7.15;;
20802;SDS011;10562;-33.856;151.182;2024-01-30T12:09:19;29.10;;;8.25;;
20802;SDS011;10562;-33.856;151.182;2024-01-30T12:11:50;21.48;;;7.47;;
20802;SDS011;10562;-33.856;151.182;2024-01-30T12:14:21;21.38;;;6.30;;
20802;SDS011;10562;-33.856;151.182;2024-01-30T12:16:54;18.95;;;6.53;;
20802;SDS011;10562;-33.856;151.182;2024-01-30T12:19:25;22.50;;;6.40;;
20802;SDS011;10562;-33.856;151.182;2024-01-30T12:21:56;22.23;;;6.00;;
20802;SDS011;10562;-33.856;151.182;2024-01-30T12:24:27;22.50;;;6.50;;
20802;SDS011;10562;-33.856;151.182;2024-01-30T12:26:58;23.70;;;6.68;;
20802;SDS011;10562;-33.856;151.182;2024-01-30T12:29:32;20.55;;;5.93;;
20802;SDS011;10562;-33.856;151.182;2024-01-30T12:32:06;21.13;;;6.05;;
20802;SDS011;10562;-33.856;151.182;2024-01-30T12:34:40;30.17;;;6.57;;
20802;SDS011;10562;-33.856;151.182;2024-01-30T12:37:11;18.15;;;5.95;;
20802;SDS011;10562;-33.856;151.182;2024-01-30T12:39:45;27.02;;;9.43;;
20802;SDS011;10562;-33.856;151.182;2024-01-30T12:42:16;26.25;;;7.38;;
20802;SDS011;10562;-33.856;151.182;2024-01-30T12:44:48;21.90;;;6.82;;
20802;SDS011;10562;-33.856;151.182;2024-01-30T12:47:23;25.48;;;6.97;;
20802;SDS011;10562;-33.856;151.182;2024-01-30T12:49:54;24.25;;;6.82;;
20802;SDS011;10562;-33.856;151.182;2024-01-30T12:52:25;26.55;;;7.43;;
20802;SDS011;10562;-33.856;151.182;2024-01-30T12:54:55;25.52;;;6.78;;
20802;SDS011;10562;-33.856;151.182;2024-01-30T12:57:26;21.08;;;7.13;;
20802;SDS011;10562;-33.856;151.182;2024-01-30T12:59:57;25.08;;;7.03;;
20802;SDS011;10562;-33.856;151.182;2024-01-30T13:02:30;27.70;;;7.10;;
20802;SDS011;10562;-33.856;151.182;2024-01-30T13:05:02;24.83;;;6.95;;
20802;SDS011;10562;-33.856;151.182;2024-01-30T13:07:34;20.10;;;7.15;;
20802;SDS011;10562;-33.856;151.182;2024-01-30T13:10:05;23.27;;;10.07;;
20802;SDS011;10562;-33.856;151.182;2024-01-30T13:12:36;23.67;;;7.15;;
20802;SDS011;10562;-33.856;151.182;2024-01-30T13:15:08;28.17;;;7.72;;
20802;SDS011;10562;-33.856;151.182;2024-01-30T13:17:41;24.40;;;7.18;;
20802;SDS011;10562;-33.856;151.182;2024-01-30T13:20:13;25.02;;;7.25;;
20802;SDS011;10562;-33.856;151.182;2024-01-30T13:22:47;26.17;;;7.50;;
20802;SDS011;10562;-33.856;151.182;2024-01-30T13:25:17;23.98;;;7.20;;
20802;SDS011;10562;-33.856;151.182;2024-01-30T13:27:48;24.33;;;7.35;;
20802;SDS011;10562;-33.856;151.182;2024-01-30T13:30:19;17.98;;;7.20;;
20802;SDS011;10562;-33.856;151.182;2024-01-30T13:32:52;26.83;;;7.25;;
20802;SDS011;10562;-33.856;151.182;2024-01-30T13:35:23;22.27;;;7.45;;
20802;SDS011;10562;-33.856;151.182;2024-01-30T13:37:53;21.13;;;7.10;;
20802;SDS011;10562;-33.856;151.182;2024-01-30T13:40:24;26.45;;;7.28;;
20802;SDS011;10562;-33.856;151.182;2024-01-30T13:42:55;19.42;;;7.55;;
20802;SDS011;10562;-33.856;151.182;2024-01-30T13:45:26;23.20;;;7.15;;
20802;SDS011;10562;-33.856;151.182;2024-01-30T13:47:58;30.05;;;7.28;;
20802;SDS011;10562;-33.856;151.182;2024-01-30T13:50:29;29.35;;;7.45;;
20802;SDS011;10562;-33.856;151.182;2024-01-30T13:53:01;24.65;;;7.50;;
20802;SDS011;10562;-33.856;151.182;2024-01-30T13:55:32;29.38;;;8.10;;
20802;SDS011;10562;-33.856;151.182;2024-01-30T13:58:04;21.40;;;7.13;;
20802;SDS011;10562;-33.856;151.182;2024-01-30T14:00:35;30.50;;;7.75;;
20802;SDS011;10562;-33.856;151.182;2024-01-30T14:03:09;25.23;;;7.03;;
20802;SDS011;10562;-33.856;151.182;2024-01-30T14:05:40;25.17;;;7.25;;
20802;SDS011;10562;-33.856;151.182;2024-01-30T14:08:10;27.88;;;7.70;;
20802;SDS011;10562;-33.856;151.182;2024-01-30T14:10:41;28.05;;;8.18;;
20802;SDS011;10562;-33.856;151.182;2024-01-30T14:13:12;29.52;;;8.07;;
20802;SDS011;10562;-33.856;151.182;2024-01-30T14:15:46;24.25;;;7.78;;
20802;SDS011;10562;-33.856;151.182;2024-01-30T14:18:18;25.67;;;7.25;;
20802;SDS011;10562;-33.856;151.182;2024-01-30T14:20:49;26.00;;;7.50;;
20802;SDS011;10562;-33.856;151.182;2024-01-30T14:23:20;28.02;;;8.15;;